Weather observations for the past three days for
Door County Cherryland Airport
Metric (Imperial)
Date Time (cdt) Wind (kph) Vis. (km) Weather Sky Cond. Temperature (ºC) Relative Humidity Wind Chill (°C) Heat Index (°C) Pressure Precipitation (cm)
Air Dwpt 6 hour altimeter (cm) sea level (mb) 1 hr 3 hr 6 hr
Max. Min.
10 12:57 NE 9 16.09 Mostly Cloudy FEW039 BKN065 11.1 -1.7 11.7 5.6 41% 76.33 1017.9
10 11:57 Vrbl 9 16.09 Partly Cloudy SCT085 10.6 -1.1 45% 76.33 1017.9
10 10:57 W 20 G 35 16.09 Mostly Cloudy SCT065 BKN090 11.1 -2.2 40% 76.3 1017.5
10 09:57 W 24 16.09 Mostly Cloudy BKN060 10.6 -2.2 41% 76.3 1017.4
10 08:57 W 17 16.09 Overcast FEW060 BKN080 OVC110 8.9 -2.8 44% 7 76.28 1017.2
10 07:57 Vrbl 9 16.09 Fair CLR 7.8 -1.7 51% 6 76.28 1017.0
10 06:57 W 6 16.09 Fair CLR 5.6 -0.6 6.7 1.7 65% 76.25 1016.7
10 05:57 Calm 16.09 Fair CLR 2.2 -2.2 73% 76.2 1016.1
10 04:57 W 7 16.09 Fair CLR 5 -2.8 57% 4 76.15 1015.6
10 03:57 NW 11 16.09 Fair CLR 5.6 -1.7 60% 3 76.1 1014.8
10 02:57 W 6 16.09 Mostly Cloudy BKN100 3.9 -2.8 62% 76.05 1014.2
10 01:57 W 7 16.09 Fair CLR 2.8 -2.8 67% 1 76.02 1013.4
10 00:57 NW 7 16.09 Fair CLR 6.7 -3.3 11.7 6.1 49% 6 76 1013.4
09 23:57 N 7 16.09 Fair CLR 6.7 -3.9 47% 6 75.97 1013.0
09 22:57 N 11 16.09 Fair CLR 6.7 -3.9 47% 5 75.95 1012.6
09 21:57 N 15 16.09 Fair CLR 8.3 -3.9 42% 6 75.9 1012.1
09 20:57 N 24 G 35 16.09 A Few Clouds FEW100 8.9 -1.7 48% 6 75.82 1011.0
09 19:57 N 22 16.09 Fair CLR 10 -2.8 41% 7 75.69 1009.3
09 18:57 N 22 16.09 Fair CLR 11.7 -2.2 16.1 11.7 38% 75.59 1007.8
09 17:57 N 22 16.09 A Few Clouds FEW090 13.9 -3.3 30% 75.49 1006.5
09 16:57 N 20 16.09 Overcast OVC100 15 -3.3 28% 75.41 1005.3
09 15:57 NW 20 16.09 Mostly Cloudy BKN100 15 -2.8 29% 75.31 1004.2
09 14:57 W 24 16.09 Mostly Cloudy BKN100 15.6 -3.3 27% 75.26 1003.2
09 13:57 NW 22 G 31 16.09 Overcast BKN070 OVC095 15.6 -1.1 32% 75.21 1002.7
09 12:57 W 26 G 39 16.09 Overcast OVC075 13.9 0.6 15 10.6 41% 75.13 1001.8
09 11:57 W 28 G 37 16.09 Fair CLR 14.4 2.8 46% 75.11 1001.3
09 10:57 W 24 G 37 16.09 Overcast OVC060 13.3 3.3 51% 75.08 1001.0
09 09:57 W 15 16.09 Light Rain SCT060 OVC080 11.1 1.1 50% 75.11 1001.4
09 08:57 W 11 16.09 Overcast OVC060 11.1 0.6 49% 75.08 1001.0
09 07:57 N 19 16.09 Overcast BKN075 OVC110 11.1 1.1 50% 74.98 999.6
09 06:57 NW 15 16.09 Partly Cloudy SCT110 11.1 2.2 11.7 8.3 55% 74.93 998.9
09 05:57 W 7 16.09 Fair CLR 9.4 3.9 69% 9 74.85 998.0
09 04:57 SW 15 16.09 Partly Cloudy SCT100 8.9 4.4 74% 7 74.83 997.6
09 03:57 SW 9 16.09 Overcast FEW095 OVC120 9.4 4.4 71% 8 74.88 998.1
09 02:57 S 19 16.09 Mostly Cloudy BKN110 11.1 3.3 59% 74.9 998.3
09 01:57 S 11 16.09 Fair CLR 9.4 3.3 66% 8 74.96 999.2
09 00:57 S 11 16.09 A Few Clouds FEW110 8.3 3.3 12.8 8.3 71% 7 75.06 1000.5
08 23:57 S 17 16.09 Mostly Cloudy BKN100 8.9 2.8 66% 7 75.13 1001.5
08 22:57 S 19 16.09 Overcast OVC100 9.4 1.1 56% 7 75.18 1002.3
08 21:57 S 22 16.09 Overcast FEW070 OVC095 10.6 -0.6 46% 75.21 1002.5
08 20:57 S 19 16.09 Overcast BKN090 OVC110 11.1 -1.1 43% 75.26 1003.4
08 19:57 S 22 16.09 Mostly Cloudy BKN095 11.1 -1.1 43% 75.26 1003.5
08 18:57 S 19 16.09 Mostly Cloudy BKN095 11.7 0 17.8 11.7 45% 75.26 1003.4
08 17:57 S 20 16.09 Mostly Cloudy BKN090 14.4 0.6 39% 75.29 1003.7
08 16:57 W 17 16.09 A Few Clouds FEW070 16.7 -1.7 29% 75.31 1004.4
08 15:57 W 17 16.09 Mostly Cloudy BKN090 17.2 -2.2 27% 75.34 1004.5
08 14:57 W 20 G 35 16.09 A Few Clouds FEW095 16.7 -3.3 25% 75.36 1005.1
08 13:57 W 19 16.09 Partly Cloudy SCT095 17.2 -2.2 27% 75.44 1005.8
08 12:57 SW 24 16.09 Fair CLR 16.1 -2.8 16.1 5 27% 75.51 1006.9
08 11:57 W 20 G 33 16.09 Fair CLR 15 -2.2 31% 75.59 1007.7
08 10:57 W 28 16.09 Fair CLR 13.9 -1.7 34% 75.62 1008.2
08 09:57 W 24 14.48 Fair CLR 12.2 -0.6 42% 75.67 1008.9
08 08:57 W 26 16.09 Fair CLR 11.1 0.6 49% 75.67 1009.1
08 07:57 W 13 16.09 Fair CLR 8.3 1.1 61% 6 75.69 1009.6
08 06:57 SW 6 16.09 Fair CLR 5 -1.7 5 1.1 62% 75.69 1009.7
08 05:57 NW 6 16.09 Fair CLR 2.2 -1.7 76% 75.69 1009.6
08 04:57 SW 7 16.09 Mostly Cloudy BKN095 3.3 -1.7 70% 2 75.67 1009.1
08 03:57 SW 9 16.09 Partly Cloudy SCT095 2.8 -1.7 73% 1 75.69 1009.6
08 02:57 SW 11 16.09 Overcast OVC100 3.3 -1.7 70% 1 75.74 1010.0
08 01:57 SW 9 16.09 Overcast OVC100 3.3 -1.7 70% 1 75.77 1010.6
08 00:57 S 9 16.09 Mostly Cloudy BKN110 3.3 -1.7 6.1 2.8 70% 1 75.82 1011.1
07 23:57 SW 9 16.09 Fair CLR 3.3 -1.7 70% 1 75.82 1011.3
07 22:57 S 13 16.09 Fair CLR 3.3 -1.1 73% 0 75.82 1011.3
07 21:57 S 15 16.09 Fair CLR 3.3 0 79% 0 75.84 1011.5
07 20:57 S 13 16.09 Fair CLR 3.9 0 76% 1 75.82 1011.4
07 19:57 S 20 16.09 Mostly Cloudy BKN085 5 -0.6 67% 1 75.77 1010.7
07 18:57 S 19 16.09 Overcast OVC090 6.1 -0.6 8.9 6.1 63% 3 75.77 1010.8
07 17:57 S 20 16.09 Overcast OVC090 7.8 -1.7 51% 5 75.77 1010.6
07 16:57 S 22 16.09 Mostly Cloudy BKN090 8.3 -2.8 46% 5 75.77 1010.8
07 15:57 S 17 16.09 Mostly Cloudy SCT055 BKN075 BKN085 8.3 -2.2 48% 6 75.79 1011.2
07 14:57 S 17 16.09 Fair CLR 8.9 -3.3 42% 7 75.84 1011.5
07 13:57 NW 13 16.09 Partly Cloudy FEW065 SCT085 8.3 -3.9 42% 6 75.87 1011.7
Date Time (cdt) Wind (kph) Vis. (km) Weather Sky Cond. Air Dwpt Max. Min. Relative Humidity Wind Chill (°C) Heat Index (°C) altimeter (cm) sea level (mb) 1 hr 3 hr 6 hr
6 hour
Temperature (ºC) Pressure Precipitation (cm)